Weather at Chief Dawid Stuurman International Airport

Public forecast

Using degrees Celsius for public forecast. Weather courtesy of forecast.io.

Current aviation weather report (METAR) for Chief Dawid Stuurman International Airport

Report is more than 6 hours old.

2022/11/14 15:00 (retrieved 2 years ago)

FAPE 141500Z 08018KT CAVOK 21/15 Q1017 NOSIG

Aviation forecast (TAF) for Chief Dawid Stuurman International Airport

Forecast is more than 12 hours old.

2023/02/22 18:00 (retrieved 1 year ago)

TAF FAPE 221600Z 2218/2318 10006KT 9999 FEW010 TX27/2311Z TN15/2303Z BECMG 2222/2224 26005KT BKN008 PROB30 TEMPO 2300/2305 4000 BR BKN003 BECMG 2306/2308 FEW007 BECMG 2310/2312 14008KT BECMG 2315/2317 BKN008 PROB40 TEMPO 2317/2318 BKN006